首页
METAR-TAF:

METAR-TAF

机场 :

杰克逊维尔国际机场

杰克逊维尔, 佛罗里达州, 美国

纬度: 30-29-40N, 经度: 081-41-36W, 海拔: 9米

当前天气观测

该预报发布于58分钟前的20:56 UTC
风速10节,风向东转东北
温度 14°C
湿度 72%
气压 1013 hPa
能見度: 16.1公里
少量云层高于3500英尺
散云层高于7000英尺
多云层高于9500英尺
多云层高于14000英尺
阴天层高于25000英尺

METAR: KJAX 292056Z 07010KT 10SM FEW035 SCT070 BKN095 BKN140 OVC250 14/09 A2992 RMK AO2 SLP131 60000 T01440089 58018

时间: 16:54 (21:54 UTC)

预报

该预报发布于4小时和34分钟前的17:20 UTC
预报有效从29日的 18点(UTC)到 30日的 18点(UTC)
风速7节,风向东转东北
能見度: 10公里
少量云层高于5000英尺
多云层高于10000英尺
阴天层高于25000英尺
附近有阵雨
从 29日的 2200点(UTC)
风速7节,风向东转东北
能見度: 10公里
散云层高于2500英尺
阴天层高于6000英尺
小毛毛雨
从 30日的 0000点(UTC)
风速5节,风向北转东北
能見度: 8.0公里
散云层高于1000英尺
阴天层高于2000英尺
小阵雨
从 30日的 0300点(UTC)
风速5节,风向北转东北
能見度: 9.7公里
散云层高于600英尺
阴天层高于1300英尺
小阵雨
从 30日的 0600点(UTC)
风速6节,风向北转东北
能見度: 9.7公里
散云层高于300英尺
阴天层高于600英尺
小阵雨
从 30日的 1400点(UTC)
风速10节,风向北转东北
能見度: 10公里
多云层高于1400英尺
从 30日的 1700点(UTC)
风速11节,风向北转东北,有时为20节阵风
能見度: 10公里
多云层高于2000英尺

TAF: KJAX 291720Z 2918/3018 06007KT P6SM VCSH FEW050 BKN100 OVC250 FM292200 06007KT P6SM -DZ SCT025 OVC060 FM300000 03005KT 5SM -SHRA SCT010 OVC020 FM300300 02005KT 6SM -SHRA SCT006 OVC013 FM300600 02006KT 6SM -SHRA SCT003 OVC006 FM301400 02010KT P6SM BKN014 FM301700 03011G20KT P6SM BKN020

超过4000个机场的气象观测和天气预报(METAR&TAF报告)。

可查询的气象台以黄色和红色小点在地图上表示。

将鼠标移到小点上方,可查看气象台名称。

然后点击查看天气观测和预报。

如需切换地图:点击带黑十字的绿色按钮放大地图;点击带横线的绿色按钮缩小地图;或者点击绿色箭头查看邻近地区的地图。


METAR-TAF: